Página principal
METAR-TAF:

METAR-TAF

Aeroportos :

Aeroporto Internacional de Damasco

Damasco, Síria

latitude: 33-25N, longitude: 036-31E, altura: 608 m

Observação actual do tempo

O boletim foi feito há 1 hora e 6 minutos, às 07:00 UTC
Vento 2 kt de su-sudoeste
Temperatura 28°C
Humidade 32%
Pressão 1012 hPa
Visibilidade 10 km ou mais
sem nuvens abaixo de 1500 metros e sem cumulonimbus

METAR: OSDI 250700Z 20002KT CAVOK 28/10 Q1012

Hora: 11:06 (08:06 UTC)

Previsão

O boletim foi feito há 3 horas e 6 minutos, às 05:00 UTC
Previsão válida de 25 às 06 UTC a 26 às 12 UTC
Vento 3 kt com direcção variável
Visibilidade 10 km ou mais
sem nuvens abaixo de 1500 metros e sem cumulonimbus
Temporariamente
de 25 às 12 UTC a 25 às 18 UTC
Vento 18 kt de sudoeste
Visibilidade 10 km ou mais
Poucas nuvensa uma altura de 3000 ft

TAF: OSDI 250500Z 2506/2612 VRB03KT CAVOK TEMPO 2512/2518 22018KT 9999 FEW030

Observações e previsões do tempo de mais de 4000 aeroportos (mensagens METAR e TAF).

As estações disponíveis são os pontos amarelos e vermelhos sobre o mapa.

Mova o rato sobre o mapa para ver o nome da estação.

Depois clique no ponto para visualizar as observações e previsões meteorológicas.

Para alterar o mapa : clique nos botões verdes com uma cruz preta para aumentar o zoom; no botão verde com uma pitada de zoom; ou nas setas verdes para mapas adjacentes.


METAR-TAF: